Haugen, Wisconsin
Current Conditions -  °F | °C
As of 2:15 AM on Friday 31 Oct 2014 (Local Time) from KUBE Reporting Station
Broken Clouds Broken Clouds  
Wind Chill: 18°   Ceiling: 3300
Heat Index: 30°   Visibility: 10mi
Dew Point: 19°   Wind: 18mph
Humidity: 64%   Direction: 350°N
Pressure: 30.34"   Gusts: 28mph
Location:  45.61°N, 91.77°W
Report Text: KUBE 310715Z AUTO 35016G24KT 10SM BKN033 M01/M07 A3034 RMK AO2
Loading
Personal Weather Stations






























Interactive Weather Map
Tropical Storm Tracking
New forecast layout! Learn more

10-Day Weather Forecast

Advertisements
Track Severe Weather on mobile